Time;durP1;ratioP1;P1;durP2;ratioP2;P2;SDS_P1;SDS_P2;PMS_P1;PMS_P2;Temp;Humidity;BMP_temperature;BMP_pressure;BME280_temperature;BME280_humidity;BME280_pressure;Samples;Min_cycle;Max_cycle;Signal;HPM_P1;HPM_P2
2022/10/27 00:00:25;;;;;;;7.65;3.30;;;18.00;98.00;;;;;;5053161;28;20183;-75
2022/10/27 00:02:51;;;;;;;6.05;2.95;;;18.10;98.00;;;;;;5052958;28;20384;-76
2022/10/27 00:05:17;;;;;;;7.07;2.88;;;18.10;97.90;;;;;;5052606;28;20491;-76
2022/10/27 00:07:42;;;;;;;7.45;3.60;;;18.10;97.80;;;;;;5052845;28;20028;-75
2022/10/27 00:10:08;;;;;;;8.85;3.78;;;18.10;97.70;;;;;;5052748;28;20393;-76
2022/10/27 00:12:35;;;;;;;8.60;2.67;;;18.10;97.70;;;;;;5053001;28;20053;-75
2022/10/27 00:15:01;;;;;;;7.90;2.47;;;18.00;97.90;;;;;;5052937;28;20056;-76
2022/10/27 00:17:29;;;;;;;8.23;2.50;;;18.00;98.00;;;;;;5053716;28;20049;-74
2022/10/27 00:19:55;;;;;;;7.00;3.10;;;18.00;98.10;;;;;;5054692;28;20021;-76
2022/10/27 00:22:20;;;;;;;7.80;3.83;;;18.00;98.10;;;;;;5052848;28;20076;-76
2022/10/27 00:24:46;;;;;;;9.15;3.08;;;18.00;98.00;;;;;;5052672;28;20468;-76
2022/10/27 00:27:12;;;;;;;7.93;3.60;;;18.00;98.00;;;;;;5052767;28;20033;-76
2022/10/27 00:29:37;;;;;;;5.47;2.40;;;18.00;98.00;;;;;;5052246;28;20445;-76
2022/10/27 00:32:03;;;;;;;5.20;1.73;;;18.00;98.00;;;;;;5052894;28;20021;-77
2022/10/27 00:34:29;;;;;;;3.47;1.58;;;18.00;98.10;;;;;;5052876;28;20423;-76
2022/10/27 00:36:54;;;;;;;6.25;1.80;;;18.00;98.10;;;;;;5055035;28;20354;-77
2022/10/27 00:39:20;;;;;;;5.25;2.30;;;18.00;98.10;;;;;;5055828;28;20024;-77
2022/10/27 00:41:45;;;;;;;8.20;2.50;;;18.00;98.10;;;;;;5056216;28;20025;-77
2022/10/27 00:44:33;;;;;;;3.47;1.98;;;18.00;98.10;;;;;;5056417;28;20021;-76
2022/10/27 00:47:02;;;;;;;3.85;2.33;;;18.00;98.00;;;;;;5056087;28;20488;-76
2022/10/27 00:49:32;;;;;;;5.88;2.30;;;18.10;98.00;;;;;;5055874;28;20033;-76
2022/10/27 00:52:04;;;;;;;4.28;1.38;;;18.00;97.90;;;;;;5056200;28;20033;-76
2022/10/27 00:54:34;;;;;;;4.75;2.25;;;18.00;98.00;;;;;;5056108;28;20028;-77
2022/10/27 00:57:00;;;;;;;4.10;2.38;;;18.00;98.00;;;;;;5055946;28;20032;-76
2022/10/27 00:59:26;;;;;;;6.45;2.28;;;18.00;98.00;;;;;;5055788;28;20068;-77
2022/10/27 01:01:52;;;;;;;6.63;2.50;;;18.00;98.00;;;;;;5055881;28;20044;-76
2022/10/27 01:04:38;;;;;;;4.30;1.80;;;18.00;98.00;;;;;;5055722;28;20120;-76
2022/10/27 01:07:04;;;;;;;6.50;2.35;;;18.00;98.00;;;;;;5055679;28;20025;-75
2022/10/27 01:09:30;;;;;;;4.05;2.20;;;18.00;98.00;;;;;;5055825;28;20041;-75
2022/10/27 01:11:56;;;;;;;3.58;1.85;;;18.00;98.00;;;;;;5055771;28;20098;-75
2022/10/27 01:14:22;;;;;;;5.70;2.58;;;18.00;98.00;;;;;;5056573;28;20515;-74
2022/10/27 01:17:34;;;;;;;5.22;2.75;;;18.00;98.00;;;;;;5055794;28;20051;-75
2022/10/27 01:20:32;;;;;;;7.30;2.55;;;18.00;98.00;;;;;;5054802;28;20515;-76
2022/10/27 01:23:10;;;;;;;7.45;3.20;;;18.00;97.90;;;;;;5055567;28;20025;-76
2022/10/27 01:26:00;;;;;;;8.60;3.28;;;18.00;97.90;;;;;;5055350;28;20032;-76
2022/10/27 01:28:31;;;;;;;7.43;2.55;;;17.90;98.00;;;;;;5055441;28;20036;-77
2022/10/27 01:31:00;;;;;;;6.80;3.60;;;17.80;98.10;;;;;;5054938;28;20408;-76
2022/10/27 01:33:36;;;;;;;6.32;2.90;;;17.70;98.10;;;;;;5055399;28;20024;-76
2022/10/27 01:36:25;;;;;;;6.03;2.90;;;17.60;98.20;;;;;;5055395;28;20029;-76
2022/10/27 01:39:12;;;;;;;8.88;2.53;;;17.60;98.30;;;;;;5051953;28;20044;-76
2022/10/27 01:41:43;;;;;;;4.28;2.80;;;17.60;98.30;;;;;;5055248;28;20043;-76
2022/10/27 01:44:20;;;;;;;6.90;2.97;;;17.60;98.60;;;;;;5054761;28;20025;-76
2022/10/27 01:46:47;;;;;;;6.68;3.60;;;17.60;98.40;;;;;;5054917;28;20564;-76
2022/10/27 01:49:13;;;;;;;9.23;3.33;;;17.50;98.40;;;;;;5054984;28;20037;-77
2022/10/27 01:51:38;;;;;;;11.95;3.90;;;17.50;98.40;;;;;;5055077;28;20104;-76
2022/10/27 01:54:05;;;;;;;12.30;3.67;;;17.50;98.50;;;;;;5054554;28;20082;-77
2022/10/27 01:56:59;;;;;;;10.35;4.03;;;17.50;98.50;;;;;;5054930;28;20025;-76
2022/10/27 01:59:40;;;;;;;6.43;3.15;;;17.40;98.60;;;;;;5046564;28;20041;-76
2022/10/27 02:02:31;;;;;;;9.20;3.40;;;17.40;98.60;;;;;;5055064;28;20029;-76
2022/10/27 02:05:11;;;;;;;8.55;3.30;;;17.40;98.70;;;;;;5054689;28;20029;-76
2022/10/27 02:07:54;;;;;;;9.85;4.25;;;17.40;98.80;;;;;;5054598;28;20029;-76
2022/10/27 02:10:36;;;;;;;6.72;3.22;;;17.30;98.80;;;;;;5055350;28;20033;-75
2022/10/27 02:13:03;;;;;;;10.88;4.78;;;17.20;98.90;;;;;;5055259;28;20029;-77
2022/10/27 02:15:28;;;;;;;7.85;3.60;;;17.00;99.20;;;;;;5054628;28;20040;-77
2022/10/27 02:18:00;;;;;;;7.38;3.58;;;16.90;99.50;;;;;;5054442;28;20021;-77
2022/10/27 02:20:31;;;;;;;7.75;3.92;;;16.90;99.70;;;;;;5054212;28;20024;-77
2022/10/27 02:22:59;;;;;;;6.70;3.63;;;16.90;99.80;;;;;;5054313;28;20035;-77
2022/10/27 02:25:29;;;;;;;5.90;3.60;;;16.90;99.80;;;;;;5054482;28;20025;-77
2022/10/27 02:28:00;;;;;;;5.38;2.65;;;16.90;99.90;;;;;;5053906;28;20509;-77
2022/10/27 02:30:26;;;;;;;7.88;3.60;;;16.90;99.80;;;;;;5053928;28;20060;-76
2022/10/27 02:32:52;;;;;;;9.95;3.30;;;17.00;99.80;;;;;;5053997;28;20025;-76
2022/10/27 02:35:18;;;;;;;9.10;3.60;;;16.90;99.80;;;;;;5054312;28;20435;-76
2022/10/27 02:37:45;;;;;;;7.90;3.08;;;16.90;99.80;;;;;;5053969;28;20408;-75
2022/10/27 02:40:11;;;;;;;5.65;3.13;;;17.00;99.80;;;;;;5053981;28;20075;-76
2022/10/27 02:42:36;;;;;;;5.90;2.67;;;17.00;99.70;;;;;;5054038;28;20029;-75
2022/10/27 02:45:02;;;;;;;7.05;3.20;;;17.00;99.70;;;;;;5053773;28;20044;-76
2022/10/27 02:47:28;;;;;;;7.85;2.78;;;17.00;99.80;;;;;;5054034;28;20025;-75
2022/10/27 02:49:53;;;;;;;8.48;2.80;;;17.00;99.80;;;;;;5053531;28;20029;-75
2022/10/27 02:52:19;;;;;;;6.70;3.22;;;17.00;99.70;;;;;;5053636;28;20025;-75
2022/10/27 02:54:47;;;;;;;7.97;3.72;;;17.00;99.70;;;;;;5053600;28;20024;-76
2022/10/27 02:57:17;;;;;;;7.68;3.08;;;17.00;99.70;;;;;;5053994;28;20059;-76
2022/10/27 02:59:43;;;;;;;6.07;3.10;;;17.00;99.60;;;;;;5053358;28;20536;-76
2022/10/27 03:02:09;;;;;;;5.75;3.42;;;17.00;99.60;;;;;;5053533;28;20070;-76
2022/10/27 03:04:35;;;;;;;8.13;3.65;;;17.00;99.60;;;;;;5053877;28;20112;-76
2022/10/27 03:07:01;;;;;;;8.48;3.85;;;17.00;99.60;;;;;;5054483;28;20028;-75
2022/10/27 03:09:26;;;;;;;9.40;4.07;;;17.00;99.70;;;;;;5053891;28;20462;-76
2022/10/27 03:11:52;;;;;;;7.22;3.90;;;16.90;99.60;;;;;;5053153;28;20048;-76
2022/10/27 03:14:18;;;;;;;7.60;3.90;;;16.90;99.70;;;;;;5053214;28;20111;-76
2022/10/27 03:16:44;;;;;;;7.20;3.50;;;16.90;99.80;;;;;;5053667;28;20017;-76
2022/10/27 03:19:10;;;;;;;10.15;4.13;;;16.90;99.90;;;;;;5053311;28;20029;-76
2022/10/27 03:21:35;;;;;;;12.15;4.55;;;16.90;99.90;;;;;;5053202;28;20059;-76
2022/10/27 03:24:01;;;;;;;8.82;3.92;;;16.90;99.90;;;;;;5053264;28;20104;-76
2022/10/27 03:26:27;;;;;;;9.95;3.95;;;16.90;99.90;;;;;;5053323;28;20412;-76
2022/10/27 03:28:52;;;;;;;10.98;4.72;;;16.90;99.80;;;;;;5053154;28;20099;-75
2022/10/27 03:31:18;;;;;;;12.77;4.35;;;16.80;99.90;;;;;;5053340;28;20433;-76
2022/10/27 03:33:43;;;;;;;6.60;3.42;;;16.70;99.90;;;;;;5052958;28;20028;-76
2022/10/27 03:36:10;;;;;;;8.65;4.20;;;16.70;99.90;;;;;;5053300;28;20028;-76
2022/10/27 03:38:36;;;;;;;6.88;3.97;;;16.80;99.90;;;;;;5053416;28;20104;-76
2022/10/27 03:41:02;;;;;;;13.05;4.82;;;16.70;99.90;;;;;;5053137;28;20052;-76
2022/10/27 03:43:28;;;;;;;7.40;3.80;;;16.60;99.90;;;;;;5053422;28;20060;-75
2022/10/27 03:45:53;;;;;;;10.10;4.90;;;16.60;99.90;;;;;;5053001;28;20024;-76
2022/10/27 03:48:19;;;;;;;13.02;5.57;;;16.50;99.90;;;;;;5053202;28;20040;-76
2022/10/27 03:50:46;;;;;;;9.40;4.47;;;16.40;99.90;;;;;;5053483;28;20481;-76
2022/10/27 03:53:13;;;;;;;10.15;4.88;;;16.40;99.90;;;;;;5053222;28;20108;-76
2022/10/27 03:55:38;;;;;;;8.38;4.13;;;16.40;99.90;;;;;;5053263;28;20049;-76
2022/10/27 03:58:04;;;;;;;8.85;4.63;;;16.40;99.90;;;;;;5053073;28;20021;-76
2022/10/27 04:00:32;;;;;;;8.35;3.80;;;16.50;99.90;;;;;;5053486;28;20028;-77
2022/10/27 04:02:58;;;;;;;7.75;3.88;;;16.50;99.90;;;;;;5053950;28;20022;-76
2022/10/27 04:05:24;;;;;;;7.13;3.88;;;16.60;99.90;;;;;;5053262;28;20036;-76
2022/10/27 04:07:50;;;;;;;8.70;3.40;;;16.50;99.90;;;;;;5052947;28;20025;-77
2022/10/27 04:10:16;;;;;;;6.60;3.70;;;16.60;99.90;;;;;;5052914;28;20111;-76
2022/10/27 04:12:48;;;;;;;5.93;3.10;;;16.60;99.90;;;;;;5056719;28;20027;-76
2022/10/27 04:15:14;;;;;;;7.75;3.63;;;16.60;99.90;;;;;;5056580;28;20387;-76
2022/10/27 04:17:39;;;;;;;9.88;3.65;;;16.60;99.90;;;;;;5056604;28;20025;-76
2022/10/27 04:20:05;;;;;;;11.32;3.90;;;16.50;99.90;;;;;;5056903;28;20021;-76
2022/10/27 04:22:31;;;;;;;6.80;2.97;;;16.40;99.90;;;;;;5056629;28;20070;-76
2022/10/27 04:24:57;;;;;;;7.03;3.40;;;16.40;99.90;;;;;;5056188;28;20140;-76
2022/10/27 04:27:22;;;;;;;7.95;2.90;;;16.40;99.90;;;;;;5056737;28;20019;-76
2022/10/27 04:29:48;;;;;;;5.85;2.70;;;16.50;99.90;;;;;;5056196;28;20053;-76
2022/10/27 04:32:13;;;;;;;4.93;2.78;;;16.60;99.90;;;;;;5056280;28;20017;-75
2022/10/27 04:34:39;;;;;;;7.50;3.83;;;16.60;99.90;;;;;;5056596;28;20028;-76
2022/10/27 04:37:05;;;;;;;6.80;3.13;;;16.60;99.90;;;;;;5056010;28;20021;-76
2022/10/27 04:39:30;;;;;;;8.20;3.78;;;16.60;99.90;;;;;;5056427;28;20035;-76
2022/10/27 04:41:56;;;;;;;6.20;2.60;;;16.60;99.90;;;;;;5056282;28;20020;-75
2022/10/27 04:44:21;;;;;;;9.45;4.38;;;16.60;99.90;;;;;;5056292;28;20057;-76
2022/10/27 04:46:47;;;;;;;6.90;3.15;;;16.50;99.90;;;;;;5056069;28;20063;-75
2022/10/27 04:49:13;;;;;;;7.97;3.47;;;16.40;99.90;;;;;;5055900;28;20037;-75
2022/10/27 04:51:38;;;;;;;8.55;3.47;;;16.40;99.90;;;;;;5056013;28;20017;-75
2022/10/27 04:54:04;;;;;;;7.72;3.92;;;16.40;99.90;;;;;;5056326;28;20115;-76
2022/10/27 04:56:30;;;;;;;7.28;3.78;;;16.40;99.90;;;;;;5056064;28;20112;-76
2022/10/27 04:58:55;;;;;;;4.75;3.40;;;16.40;99.90;;;;;;5056468;28;20071;-75
2022/10/27 05:01:22;;;;;;;9.40;3.78;;;16.40;99.90;;;;;;5057116;28;20014;-76
2022/10/27 05:03:48;;;;;;;8.50;3.95;;;16.40;99.90;;;;;;5055517;28;20025;-76
2022/10/27 05:06:14;;;;;;;7.43;3.80;;;16.40;99.90;;;;;;5055640;28;20025;-78
2022/10/27 05:08:40;;;;;;;7.75;3.75;;;16.30;99.90;;;;;;5055773;28;20033;-77
2022/10/27 05:11:05;;;;;;;7.70;3.55;;;16.30;99.90;;;;;;5055850;28;20052;-77
2022/10/27 05:13:31;;;;;;;7.32;3.95;;;16.40;99.90;;;;;;5055494;28;20475;-77
2022/10/27 05:16:00;;;;;;;8.93;3.53;;;16.30;99.90;;;;;;5055728;28;20029;-77
2022/10/27 05:18:26;;;;;;;8.05;4.63;;;16.30;99.90;;;;;;5055281;28;20159;-77
2022/10/27 05:20:52;;;;;;;5.13;3.20;;;16.30;99.90;;;;;;5055584;28;20049;-77
2022/10/27 05:23:17;;;;;;;7.20;3.85;;;16.20;99.90;;;;;;5055298;28;20127;-77
2022/10/27 05:25:43;;;;;;;4.68;2.83;;;16.20;99.90;;;;;;5055662;28;20491;-77
2022/10/27 05:28:13;;;;;;;8.40;3.83;;;16.20;99.90;;;;;;5055260;28;20033;-77
2022/10/27 05:30:38;;;;;;;10.48;3.50;;;16.30;99.90;;;;;;5054793;28;20098;-77
2022/10/27 05:33:05;;;;;;;5.72;3.22;;;16.30;99.90;;;;;;5055073;28;20032;-77
2022/10/27 05:35:31;;;;;;;6.20;3.70;;;16.30;99.90;;;;;;5055348;28;20384;-77
2022/10/27 05:37:57;;;;;;;10.30;4.18;;;16.30;99.90;;;;;;5054990;28;20491;-77
2022/10/27 05:40:22;;;;;;;5.00;3.70;;;16.20;99.90;;;;;;5054953;28;20052;-77
2022/10/27 05:42:52;;;;;;;7.45;3.92;;;16.20;99.90;;;;;;5055258;28;20025;-77
2022/10/27 05:45:19;;;;;;;9.40;3.92;;;16.20;99.90;;;;;;5054995;28;20036;-77
2022/10/27 05:47:45;;;;;;;7.25;3.40;;;16.20;99.90;;;;;;5055411;28;20028;-77
2022/10/27 05:50:11;;;;;;;7.72;3.80;;;16.20;99.90;;;;;;5054902;28;20435;-77
2022/10/27 05:52:36;;;;;;;10.50;4.30;;;16.20;99.90;;;;;;5055072;28;20026;-77
2022/10/27 05:55:02;;;;;;;8.45;3.85;;;16.20;99.90;;;;;;5055309;28;20467;-76
2022/10/27 05:57:27;;;;;;;9.00;3.72;;;16.10;99.90;;;;;;5056146;28;20025;-77
2022/10/27 05:59:53;;;;;;;4.88;3.08;;;16.10;99.90;;;;;;5054433;28;20013;-77
2022/10/27 06:02:18;;;;;;;8.27;3.78;;;16.20;99.90;;;;;;5054278;28;20056;-77
2022/10/27 06:04:44;;;;;;;8.48;4.32;;;16.20;99.90;;;;;;5054580;28;20021;-77
2022/10/27 06:07:09;;;;;;;7.88;4.00;;;16.20;99.90;;;;;;5054415;28;20021;-76
2022/10/27 06:09:35;;;;;;;7.90;3.85;;;16.10;99.90;;;;;;5054232;28;20440;-76
2022/10/27 06:12:01;;;;;;;7.78;3.33;;;16.20;99.90;;;;;;5054255;28;20025;-76
2022/10/27 06:14:26;;;;;;;7.20;3.53;;;16.20;99.90;;;;;;5054540;28;20032;-76
2022/10/27 06:16:52;;;;;;;9.43;4.50;;;16.20;99.90;;;;;;5054574;28;20407;-76
2022/10/27 06:19:17;;;;;;;6.80;3.65;;;16.20;99.80;;;;;;5054106;28;20039;-76
2022/10/27 06:21:43;;;;;;;7.50;3.70;;;16.20;99.80;;;;;;5054267;28;20032;-76
2022/10/27 06:24:08;;;;;;;10.27;4.82;;;16.20;99.80;;;;;;5054202;28;20025;-76
2022/10/27 06:26:34;;;;;;;7.35;4.10;;;16.10;99.70;;;;;;5054006;28;20486;-76
2022/10/27 06:29:00;;;;;;;11.00;4.72;;;16.00;99.80;;;;;;5053973;28;20123;-75
2022/10/27 06:31:25;;;;;;;6.28;3.92;;;16.00;99.80;;;;;;5053908;28;20044;-77
2022/10/27 06:33:51;;;;;;;7.35;3.70;;;16.00;99.90;;;;;;5053545;28;20029;-76
2022/10/27 06:36:16;;;;;;;8.60;4.22;;;16.00;99.90;;;;;;5053772;28;20014;-76
2022/10/27 06:38:42;;;;;;;6.18;3.60;;;16.00;99.90;;;;;;5053880;28;20074;-76
2022/10/27 06:41:08;;;;;;;8.90;4.50;;;16.00;99.90;;;;;;5054225;28;20368;-76
2022/10/27 06:43:33;;;;;;;8.20;3.80;;;16.00;99.80;;;;;;5053845;28;20049;-76
2022/10/27 06:45:59;;;;;;;12.38;5.05;;;16.00;99.90;;;;;;5054018;28;20029;-75
2022/10/27 06:48:24;;;;;;;8.07;4.63;;;16.00;99.80;;;;;;5054009;28;20112;-76
2022/10/27 06:50:50;;;;;;;12.73;5.07;;;16.00;99.90;;;;;;5053944;28;20029;-76
2022/10/27 06:53:15;;;;;;;14.05;4.88;;;15.90;99.90;;;;;;5055258;28;20025;-75
2022/10/27 06:55:41;;;;;;;11.63;5.07;;;16.00;99.90;;;;;;5053772;28;20028;-75
2022/10/27 06:58:06;;;;;;;9.00;4.70;;;16.00;99.90;;;;;;5053657;28;20448;-76
2022/10/27 07:00:32;;;;;;;9.38;4.88;;;15.90;99.90;;;;;;5053732;28;20033;-77
2022/10/27 07:02:58;;;;;;;6.97;4.65;;;15.90;99.90;;;;;;5053405;28;20025;-76
2022/10/27 07:05:24;;;;;;;11.30;4.70;;;15.80;99.90;;;;;;5053370;28;20025;-76
2022/10/27 07:07:51;;;;;;;10.55;4.65;;;15.80;99.90;;;;;;5053453;28;20025;-76
2022/10/27 07:10:18;;;;;;;9.82;4.18;;;15.80;99.90;;;;;;5053599;28;20464;-75
2022/10/27 07:12:57;;;;;;;9.30;4.30;;;15.80;99.90;;;;;;5053110;28;20435;-76
2022/10/27 07:15:26;;;;;;;9.60;4.55;;;15.80;99.90;;;;;;5053076;28;20082;-76
2022/10/27 07:17:56;;;;;;;10.52;4.57;;;15.80;99.90;;;;;;5053191;28;20029;-77
2022/10/27 07:20:21;;;;;;;11.43;4.93;;;15.70;99.90;;;;;;5053528;28;20357;-77
2022/10/27 07:22:47;;;;;;;8.73;4.72;;;15.70;99.90;;;;;;5053486;28;20108;-77
2022/10/27 07:25:12;;;;;;;7.05;3.80;;;15.70;99.90;;;;;;5053351;28;20017;-77
2022/10/27 07:27:38;;;;;;;8.13;3.75;;;15.60;99.90;;;;;;5053438;28;20029;-75
2022/10/27 07:30:04;;;;;;;6.88;3.83;;;15.70;99.90;;;;;;5053377;28;20442;-76
2022/10/27 07:32:30;;;;;;;8.75;4.63;;;15.80;99.90;;;;;;5053176;28;20032;-76
2022/10/27 07:34:55;;;;;;;8.35;4.55;;;15.80;99.90;;;;;;5053429;28;20021;-76
2022/10/27 07:37:21;;;;;;;7.57;3.70;;;15.80;99.90;;;;;;5053115;28;20020;-76
2022/10/27 07:39:46;;;;;;;10.68;4.28;;;15.70;99.90;;;;;;5052636;28;20408;-75
2022/10/27 07:42:12;;;;;;;7.80;4.20;;;15.70;99.90;;;;;;5053530;28;20025;-76
2022/10/27 07:44:37;;;;;;;5.97;4.28;;;15.70;99.90;;;;;;5054066;28;20536;-76
2022/10/27 07:47:03;;;;;;;12.07;4.25;;;15.70;99.90;;;;;;5057444;28;20021;-75
2022/10/27 07:49:28;;;;;;;8.50;3.63;;;15.70;99.90;;;;;;5057972;28;20128;-74
2022/10/27 07:51:54;;;;;;;11.07;3.70;;;15.70;99.90;;;;;;5057285;28;20107;-76
2022/10/27 07:54:19;;;;;;;8.88;4.45;;;15.70;99.90;;;;;;5057227;28;20059;-76
2022/10/27 07:56:48;;;;;;;9.85;4.35;;;15.70;99.90;;;;;;5056709;28;20024;-76
2022/10/27 07:59:13;;;;;;;7.80;3.60;;;15.70;99.90;;;;;;5056996;28;20021;-76
2022/10/27 08:01:39;;;;;;;6.90;3.60;;;15.70;99.90;;;;;;5056984;28;20040;-76
2022/10/27 08:04:04;;;;;;;13.15;4.00;;;15.80;99.90;;;;;;5056894;28;20024;-77
2022/10/27 08:06:30;;;;;;;7.05;4.00;;;15.80;99.90;;;;;;5056728;28;20029;-77
2022/10/27 08:08:55;;;;;;;10.13;3.45;;;15.90;99.90;;;;;;5056751;28;20033;-76
2022/10/27 08:11:22;;;;;;;10.00;3.97;;;15.90;99.90;;;;;;5056596;28;20457;-76
2022/10/27 08:13:48;;;;;;;10.93;3.50;;;15.90;99.90;;;;;;5056573;28;20041;-76
2022/10/27 08:16:14;;;;;;;9.35;4.45;;;15.90;99.90;;;;;;5056579;28;20029;-76
2022/10/27 08:18:40;;;;;;;8.80;4.13;;;15.90;99.90;;;;;;5056388;28;20021;-76
2022/10/27 08:21:06;;;;;;;9.25;4.20;;;16.00;99.90;;;;;;5056386;28;20171;-77
2022/10/27 08:23:31;;;;;;;10.30;4.43;;;15.90;99.90;;;;;;5056475;28;20017;-76
2022/10/27 08:25:57;;;;;;;8.05;3.20;;;16.00;99.90;;;;;;5056575;28;20542;-76
2022/10/27 08:28:26;;;;;;;8.38;3.78;;;16.00;99.90;;;;;;5056445;28;20375;-76
2022/10/27 08:30:51;;;;;;;9.18;3.83;;;16.10;99.90;;;;;;5056103;28;20454;-76
2022/10/27 08:33:17;;;;;;;13.30;3.80;;;16.20;99.90;;;;;;5056465;28;20021;-77
2022/10/27 08:35:43;;;;;;;6.75;3.58;;;16.30;99.90;;;;;;5056317;28;20396;-76
2022/10/27 08:38:12;;;;;;;9.23;4.05;;;16.40;99.90;;;;;;5056235;28;20043;-76
2022/10/27 08:40:59;;;;;;;6.30;3.45;;;16.50;99.90;;;;;;5055910;28;20388;-76
2022/10/27 08:43:59;;;;;;;10.65;3.67;;;16.60;99.90;;;;;;5056657;28;20025;-76
2022/10/27 08:46:35;;;;;;;7.55;3.95;;;16.60;99.90;;;;;;5057523;28;20025;-76
2022/10/27 08:49:05;;;;;;;9.13;4.10;;;16.60;99.90;;;;;;5056055;28;20112;-77
2022/10/27 08:51:33;;;;;;;7.22;3.35;;;16.70;99.90;;;;;;5056179;28;20032;-76
2022/10/27 08:53:59;;;;;;;10.40;3.97;;;16.80;99.90;;;;;;5055916;28;20400;-77
2022/10/27 08:56:31;;;;;;;10.77;4.25;;;16.80;99.90;;;;;;5054949;28;20029;-77
2022/10/27 08:58:57;;;;;;;11.53;4.30;;;16.90;99.90;;;;;;5055548;28;20381;-77
2022/10/27 09:02:01;;;;;;;5.70;3.25;;;17.00;99.90;;;;;;5055784;28;20263;-76
2022/10/27 09:04:43;;;;;;;8.18;4.25;;;17.00;99.90;;;;;;5056072;28;20025;-76
2022/10/27 09:07:08;;;;;;;5.82;3.30;;;17.00;99.70;;;;;;5055721;28;20064;-76
2022/10/27 09:09:42;;;;;;;7.03;3.55;;;17.00;99.70;;;;;;5055560;28;20042;-76
2022/10/27 09:12:11;;;;;;;7.72;3.20;;;17.00;99.60;;;;;;5055817;28;20059;-76
2022/10/27 09:14:57;;;;;;;7.32;3.35;;;17.10;99.50;;;;;;5055761;28;20028;-76
2022/10/27 09:17:44;;;;;;;9.05;3.38;;;17.10;99.60;;;;;;5055831;28;20021;-76
2022/10/27 09:20:23;;;;;;;11.43;3.17;;;17.20;99.70;;;;;;5055617;28;20025;-77
2022/10/27 09:22:51;;;;;;;9.80;2.85;;;17.30;99.60;;;;;;5055777;28;20025;-77
2022/10/27 09:25:21;;;;;;;7.03;2.85;;;17.30;99.40;;;;;;5055463;28;20354;-77
2022/10/27 09:27:52;;;;;;;6.07;2.17;;;17.40;99.30;;;;;;5055141;28;20029;-77
2022/10/27 09:30:18;;;;;;;8.38;2.30;;;17.40;99.20;;;;;;5055059;28;20077;-76
2022/10/27 09:32:48;;;;;;;3.92;2.00;;;17.50;99.00;;;;;;5055696;28;20053;-77
2022/10/27 09:35:16;;;;;;;5.30;1.70;;;17.60;98.70;;;;;;5055768;28;20388;-76
2022/10/27 09:37:43;;;;;;;10.80;2.00;;;17.70;98.70;;;;;;5054894;28;20025;-76
2022/10/27 09:40:35;;;;;;;5.35;1.60;;;17.70;98.50;;;;;;5055205;28;20079;-76
2022/10/27 09:43:02;;;;;;;5.85;1.48;;;17.80;98.20;;;;;;5054185;28;20043;-77
2022/10/27 09:45:28;;;;;;;6.65;1.58;;;17.90;98.10;;;;;;5054893;28;20518;-77
2022/10/27 09:47:57;;;;;;;5.63;1.30;;;18.00;98.00;;;;;;5054825;28;20028;-75
2022/10/27 09:50:39;;;;;;;3.03;1.33;;;18.10;98.00;;;;;;5054621;28;20037;-76
2022/10/27 09:53:25;;;;;;;7.93;1.25;;;18.20;97.90;;;;;;5054439;28;20021;-76
2022/10/27 09:55:52;;;;;;;5.68;1.25;;;18.30;97.70;;;;;;5054578;28;20029;-77
2022/10/27 09:58:19;;;;;;;8.18;1.35;;;18.40;97.40;;;;;;5054731;28;20070;-76
2022/10/27 10:00:59;;;;;;;8.73;2.10;;;18.40;97.30;;;;;;5054775;28;20025;-77
2022/10/27 10:03:24;;;;;;;4.55;1.20;;;18.50;97.20;;;;;;5054715;28;20021;-77
2022/10/27 10:06:02;;;;;;;5.22;1.10;;;18.50;97.00;;;;;;5054213;28;20170;-77
2022/10/27 10:08:32;;;;;;;3.05;0.90;;;18.50;97.20;;;;;;5053136;28;20374;-77
2022/10/27 10:11:20;;;;;;;7.65;1.50;;;18.60;97.00;;;;;;5054453;28;20058;-77
2022/10/27 10:13:57;;;;;;;5.18;1.20;;;18.70;97.10;;;;;;5054064;28;20067;-76
2022/10/27 10:16:24;;;;;;;5.68;0.80;;;18.70;96.80;;;;;;5054453;28;20021;-77
2022/10/27 10:19:15;;;;;;;3.42;0.70;;;18.70;96.70;;;;;;5054273;28;20107;-77
2022/10/27 10:21:53;;;;;;;4.78;0.75;;;18.80;96.70;;;;;;5053950;28;20029;-76
2022/10/27 10:24:44;;;;;;;4.47;0.75;;;18.90;96.20;;;;;;5054454;28;20025;-76
2022/10/27 10:27:31;;;;;;;5.50;0.80;;;19.10;96.30;;;;;;5054115;28;20056;-75
2022/10/27 10:30:03;;;;;;;4.82;0.80;;;19.20;96.00;;;;;;5053457;28;20059;-75
2022/10/27 10:32:34;;;;;;;4.65;0.90;;;19.30;95.30;;;;;;5054139;28;20017;-76
2022/10/27 10:35:00;;;;;;;4.82;0.90;;;19.40;95.20;;;;;;5053915;28;20041;-76
2022/10/27 10:37:44;;;;;;;4.25;0.50;;;19.50;95.30;;;;;;5056408;28;20029;-75
2022/10/27 10:40:09;;;;;;;2.05;0.40;;;19.70;95.30;;;;;;5054617;28;20028;-76
2022/10/27 10:42:35;;;;;;;9.88;0.75;;;19.80;95.00;;;;;;5053799;28;20032;-77
2022/10/27 10:45:32;;;;;;;3.80;0.65;;;19.90;94.60;;;;;;5053473;28;20028;-77
2022/10/27 10:48:00;;;;;;;3.80;0.50;;;20.00;93.80;;;;;;5049447;28;20033;-77
2022/10/27 10:50:27;;;;;;;4.93;0.90;;;20.00;93.80;;;;;;5053669;28;20044;-77
2022/10/27 10:52:55;;;;;;;2.45;0.60;;;20.00;94.00;;;;;;5053829;28;20373;-77
2022/10/27 10:55:26;;;;;;;7.60;0.90;;;20.00;94.10;;;;;;5053876;28;20029;-76
2022/10/27 10:57:55;;;;;;;6.32;1.23;;;20.10;94.40;;;;;;5053326;28;20029;-76
2022/10/27 11:00:21;;;;;;;5.35;0.65;;;20.00;94.10;;;;;;5053701;28;20021;-76
2022/10/27 11:03:01;;;;;;;3.92;0.93;;;20.00;93.40;;;;;;5053768;28;20060;-77
2022/10/27 11:05:33;;;;;;;4.60;0.60;;;20.00;93.80;;;;;;5053672;28;20029;-77
2022/10/27 11:08:00;;;;;;;6.53;0.70;;;20.00;93.60;;;;;;5053482;28;20487;-77
2022/10/27 11:10:34;;;;;;;5.13;0.70;;;20.00;93.80;;;;;;5053259;28;20041;-77
2022/10/27 11:13:05;;;;;;;5.07;0.63;;;20.00;94.20;;;;;;5053883;28;20037;-76
2022/10/27 11:15:48;;;;;;;2.03;0.63;;;20.00;93.60;;;;;;5053563;28;20060;-76
2022/10/27 11:18:35;;;;;;;4.18;0.82;;;20.00;93.70;;;;;;5053407;28;20084;-77
2022/10/27 11:21:31;;;;;;;4.72;0.70;;;20.00;94.00;;;;;;5053029;28;20029;-77
2022/10/27 11:24:07;;;;;;;4.07;0.85;;;20.00;94.10;;;;;;5053385;28;20025;-76
2022/10/27 11:26:36;;;;;;;5.25;0.98;;;20.10;94.50;;;;;;5053146;28;20051;-76
2022/10/27 11:29:07;;;;;;;4.50;0.77;;;20.10;94.50;;;;;;5053360;28;20384;-75
2022/10/27 11:31:47;;;;;;;4.45;0.80;;;20.10;94.20;;;;;;5053238;28;20404;-76
2022/10/27 11:34:48;;;;;;;5.63;0.80;;;20.20;94.00;;;;;;5053896;28;20068;-74
2022/10/27 11:37:27;;;;;;;9.52;3.00;;;20.20;93.50;;;;;;5051834;28;20061;-76
2022/10/27 11:39:59;;;;;;;6.18;1.67;;;20.20;93.50;;;;;;5052838;28;20029;-76
2022/10/27 11:42:56;;;;;;;7.00;1.90;;;20.20;93.80;;;;;;5052918;28;20059;-83
2022/10/27 11:45:37;;;;;;;3.30;0.85;;;20.20;94.30;;;;;;5048369;28;20033;-83
2022/10/27 11:48:11;;;;;;;3.97;0.93;;;20.20;93.90;;;;;;5053125;28;20100;-80
2022/10/27 11:50:47;;;;;;;4.00;0.90;;;20.20;93.80;;;;;;5052817;28;20033;-80
2022/10/27 11:53:13;;;;;;;5.43;1.05;;;20.20;93.60;;;;;;5053179;28;20108;-82
2022/10/27 11:55:48;;;;;;;5.15;0.50;;;20.20;93.90;;;;;;5053058;28;20112;-79
2022/10/27 11:58:25;;;;;;;6.05;0.47;;;20.20;93.20;;;;;;5052905;28;20049;-85
2022/10/27 12:01:15;;;;;;;7.07;0.65;;;20.20;93.20;;;;;;5052407;28;20043;-79
2022/10/27 12:04:04;;;;;;;6.75;0.80;;;20.20;93.20;;;;;;5051303;28;20033;-77
2022/10/27 12:06:42;;;;;;;4.85;0.60;;;20.20;93.10;;;;;;5033054;28;20496;-81
2022/10/27 12:09:41;;;;;;;7.57;1.30;;;20.30;93.60;;;;;;5053155;28;20120;-78
2022/10/27 12:12:24;;;;;;;10.93;0.60;;;20.40;93.30;;;;;;5053275;28;20558;-83
2022/10/27 12:15:09;;;;;;;3.55;0.70;;;20.40;92.50;;;;;;5052844;28;20481;-80
2022/10/27 12:17:47;;;;;;;5.65;1.40;;;20.40;92.90;;;;;;5053923;28;20465;-85
2022/10/27 12:20:36;;;;;;;3.67;0.52;;;20.40;93.10;;;;;;5053428;28;20541;-81
2022/10/27 12:23:10;;;;;;;4.55;0.70;;;20.40;93.10;;;;;;5052815;28;20041;-82
2022/10/27 12:25:45;;;;;;;4.00;0.80;;;20.40;93.20;;;;;;5053451;28;20384;-80
2022/10/27 12:28:13;;;;;;;3.15;0.77;;;20.40;93.40;;;;;;5057275;28;20025;-82
2022/10/27 12:30:44;;;;;;;5.53;0.70;;;20.40;93.40;;;;;;5065539;28;20056;-85
2022/10/27 12:33:27;;;;;;;2.50;0.50;;;20.40;93.20;;;;;;5055450;28;20387;-81
2022/10/27 12:35:58;;;;;;;2.25;0.60;;;20.40;93.40;;;;;;5057173;28;20033;-81
2022/10/27 12:38:59;;;;;;;6.13;0.90;;;20.40;93.30;;;;;;5057404;28;20024;-81
2022/10/27 12:41:50;;;;;;;4.53;0.88;;;20.40;93.50;;;;;;5035024;28;20036;-82
2022/10/27 12:44:31;;;;;;;3.15;0.70;;;20.30;93.40;;;;;;5048625;28;20040;-79
2022/10/27 12:47:07;;;;;;;3.63;0.50;;;20.30;93.50;;;;;;5056396;28;20021;-81
2022/10/27 12:49:33;;;;;;;4.82;0.50;;;20.30;93.40;;;;;;5056431;28;20040;-80
2022/10/27 12:52:07;;;;;;;6.43;0.60;;;20.30;93.50;;;;;;5056244;28;20577;-80
2022/10/27 12:55:09;;;;;;;3.60;0.50;;;20.30;93.80;;;;;;5055234;28;20055;-78
2022/10/27 12:58:00;;;;;;;4.88;0.70;;;20.20;94.00;;;;;;5053901;28;20037;-78
2022/10/27 13:00:26;;;;;;;5.28;0.90;;;20.20;94.30;;;;;;5056123;28;20033;-78
2022/10/27 13:03:18;;;;;;;4.22;0.88;;;20.10;94.40;;;;;;5056208;28;20028;-81